Kennedale's Hourly Summary for Monday, July 9, 2018
Hour Temp
(f)
RH
(%)
Solar Rad.
(MJ/m2)
Rainfall
(in)
Wind
(mph)
7/9/2018 12:00 AM 76 77 0 0 1.12
7/9/2018 1:00 AM 75 81 0 0 1.73
7/9/2018 2:00 AM 75 85 0 0 2.52
7/9/2018 3:00 AM 74 89 0 0 3.58
7/9/2018 4:00 AM 73 91 0 0 2.96
7/9/2018 5:00 AM 73 92 0 0 1.68
7/9/2018 6:00 AM 73 93 0.01 0 2.13
7/9/2018 7:00 AM 74 92 0.2 0 2.57
7/9/2018 8:00 AM 78 82 0.74 0 2.23
7/9/2018 9:00 AM 82 74 1.3 0 2.13
7/9/2018 10:00 AM 83 67 1.54 0 4.81
7/9/2018 11:00 AM 86 58 2.41 0 4.36
7/9/2018 12:00 PM 88 52 2.58 0 4.87
7/9/2018 1:00 PM 89 50 1.55 0 4.53
7/9/2018 2:00 PM 90 47 1.52 0 4.75
7/9/2018 3:00 PM 91 45 1.74 0 5.48
7/9/2018 4:00 PM 88 55 1.21 0 6.49
7/9/2018 5:00 PM 87 55 0.69 0 5.98
7/9/2018 6:00 PM 80 79 0.25 0.03 4.92
7/9/2018 7:00 PM 79 82 0.11 0 2.96
7/9/2018 8:00 PM 78 84 0.04 0 2.85
7/9/2018 9:00 PM 78 83 0 0 4.08
7/9/2018 10:00 PM 77 82 0 0 4.98
7/9/2018 11:00 PM 77 84 0 0 3.69
Data Summary 80 74 15.89 0.03 3.64